Ilha Grande, Brazil
Current Conditions -  °F | °C
As of 7:00 PM on Monday 24 Nov 2014 (Local Time) from SBSC Reporting Station
Broken Clouds Broken Clouds  
Wind Chill: 77°   Ceiling: 4000
Heat Index: 78°   Visibility: 4mi
Dew Point: 72°   Wind: 9mph
Humidity: 83%   Direction: 140°SE
Pressure: 29.91"   Gusts: NA
Location:  23.15°S, 44.13°W
Report Text: SBSC 242100Z 14008KT 6000 FEW015 BKN040 25/22 Q1013
Loading
Personal Weather Stations






























Interactive Weather Map New forecast layout! Learn more

10-Day Weather Forecast

Advertisements
Track Severe Weather on mobile